Time;durP1;ratioP1;P1;durP2;ratioP2;P2;SDS_P1;SDS_P2;PMS_P1;PMS_P2;Temp;Humidity;BMP_temperature;BMP_pressure;BME280_temperature;BME280_humidity;BME280_pressure;Samples;Min_cycle;Max_cycle;Signal;HPM_P1;HPM_P2
2023/09/24 00:01:49;;;;;;;4.88;1.65;;;;;;;11.79;81.15;93373.44;2029171;70;20205;-75
2023/09/24 00:04:17;;;;;;;2.22;1.70;;;;;;;11.83;80.38;93358.91;2029644;70;20605;-75
2023/09/24 00:06:45;;;;;;;3.00;2.10;;;;;;;11.76;81.48;93363.34;2029611;70;20666;-77
2023/09/24 00:09:12;;;;;;;5.82;2.40;;;;;;;11.76;80.76;93354.91;2029517;70;20153;-76
2023/09/24 00:11:38;;;;;;;3.10;1.95;;;;;;;11.81;81.02;93361.53;2029133;70;20240;-77
2023/09/24 00:14:03;;;;;;;5.70;2.00;;;;;;;11.74;81.29;93363.22;2028653;70;20621;-78
2023/09/24 00:16:29;;;;;;;3.00;2.05;;;;;;;11.82;81.24;93385.59;2028636;70;20157;-76
2023/09/24 00:18:55;;;;;;;4.78;1.58;;;;;;;11.77;81.73;93389.47;2029038;70;20167;-77
2023/09/24 00:21:21;;;;;;;4.25;2.00;;;;;;;11.76;81.28;93388.75;2029135;70;20164;-77
2023/09/24 00:23:50;;;;;;;3.33;2.00;;;;;;;11.82;81.24;93391.22;2029784;70;20175;-77
2023/09/24 00:26:17;;;;;;;6.45;1.88;;;;;;;11.84;80.66;93391.41;2029234;70;20168;-77
2023/09/24 00:28:44;;;;;;;6.10;1.58;;;;;;;11.81;80.88;93396.13;2029335;70;20190;-77
2023/09/24 00:31:10;;;;;;;4.70;1.50;;;;;;;11.84;80.10;93394.97;2028260;70;20152;-77
2023/09/24 00:33:38;;;;;;;3.97;1.58;;;;;;;11.83;79.85;93393.50;2029763;70;20171;-77
2023/09/24 00:36:05;;;;;;;2.25;1.45;;;;;;;11.75;80.57;93387.28;2028741;70;20263;-76
2023/09/24 00:38:33;;;;;;;2.50;1.70;;;;;;;11.79;80.17;93387.56;2029678;70;20220;-77
2023/09/24 00:41:00;;;;;;;2.22;1.50;;;;;;;11.77;80.07;93381.03;2028758;70;20249;-77
2023/09/24 00:43:27;;;;;;;4.85;1.30;;;;;;;11.73;80.43;93384.31;2030995;70;20289;-76
2023/09/24 00:46:00;;;;;;;2.72;1.40;;;;;;;11.78;80.42;93382.53;2031363;70;20151;-76
2023/09/24 00:48:30;;;;;;;1.80;1.40;;;;;;;11.67;81.18;93372.63;2029170;70;20192;-76
2023/09/24 00:51:15;;;;;;;2.20;1.20;;;;;;;11.64;81.08;93377.41;2026035;70;20669;-77
2023/09/24 00:53:41;;;;;;;1.75;1.52;;;;;;;11.66;80.64;93383.16;2031467;70;20149;-77
2023/09/24 00:56:06;;;;;;;4.05;1.40;;;;;;;11.75;80.00;93386.53;2029270;70;20616;-76
2023/09/24 00:58:37;;;;;;;2.22;1.55;;;;;;;11.73;79.88;93392.03;2031788;70;20655;-75
2023/09/24 01:01:09;;;;;;;2.40;1.88;;;;;;;11.74;80.65;93397.09;2032846;70;20710;-76
2023/09/24 01:03:39;;;;;;;3.40;1.70;;;;;;;11.79;80.63;93403.75;2032784;70;20139;-76
2023/09/24 01:06:06;;;;;;;3.47;1.83;;;;;;;11.80;80.36;93400.31;2032309;70;20152;-76
2023/09/24 01:08:33;;;;;;;2.58;2.00;;;;;;;11.76;80.76;93402.13;2032679;70;20206;-76
2023/09/24 01:11:05;;;;;;;4.20;1.80;;;;;;;11.85;79.91;93410.53;2032956;70;20160;-76
2023/09/24 01:13:39;;;;;;;2.53;1.73;;;;;;;11.90;80.35;93401.00;2032768;70;20148;-75
2023/09/24 01:16:09;;;;;;;5.22;2.17;;;;;;;11.89;80.73;93398.81;2032505;70;20152;-76
2023/09/24 01:18:43;;;;;;;3.63;1.88;;;;;;;11.89;79.49;93405.19;2032234;70;20164;-77
2023/09/24 01:21:17;;;;;;;2.30;1.80;;;;;;;11.93;80.03;93413.91;2032959;70;20149;-77
2023/09/24 01:23:44;;;;;;;3.35;1.88;;;;;;;11.88;80.58;93409.34;2032849;70;20163;-76
2023/09/24 01:26:11;;;;;;;2.38;1.90;;;;;;;11.89;80.58;93410.81;2032370;70;20128;-76
2023/09/24 01:28:40;;;;;;;5.38;1.75;;;;;;;11.94;80.15;93411.84;2032186;70;20228;-77
2023/09/24 01:31:06;;;;;;;4.65;1.70;;;;;;;11.64;81.44;93411.25;2032821;70;20152;-76
2023/09/24 01:33:36;;;;;;;3.20;1.60;;;;;;;11.81;80.81;93417.97;2028836;70;20268;-76
2023/09/24 01:36:03;;;;;;;2.97;2.17;;;;;;;11.81;81.54;93409.50;2026348;70;20152;-76
2023/09/24 01:38:30;;;;;;;3.58;1.90;;;;;;;11.74;80.91;93411.19;2026847;70;20225;-76
2023/09/24 01:40:55;;;;;;;3.28;1.60;;;;;;;11.88;79.67;93408.63;2026162;71;20172;-76
2023/09/24 01:43:24;;;;;;;2.88;1.90;;;;;;;11.83;80.80;93412.50;2026642;70;20141;-76
2023/09/24 01:45:50;;;;;;;3.92;1.77;;;;;;;11.81;80.11;93407.41;2026248;71;20141;-76
2023/09/24 01:48:17;;;;;;;4.72;2.25;;;;;;;11.78;80.41;93403.00;2026044;70;20165;-77
2023/09/24 01:50:43;;;;;;;4.20;2.10;;;;;;;11.60;81.67;93410.22;2026314;70;20133;-76
2023/09/24 01:53:09;;;;;;;5.15;2.75;;;;;;;11.49;83.04;93408.78;2026090;71;20586;-77
2023/09/24 01:55:38;;;;;;;4.85;3.10;;;;;;;11.35;83.62;93408.53;2026809;70;20159;-77
2023/09/24 01:58:05;;;;;;;4.93;2.78;;;;;;;11.42;82.98;93406.91;2023625;71;20209;-76
2023/09/24 02:00:33;;;;;;;8.70;3.58;;;;;;;11.17;85.43;93410.09;2026256;71;20168;-76
2023/09/24 02:03:05;;;;;;;5.50;3.35;;;;;;;11.30;84.89;93420.88;2026255;70;20678;-77
2023/09/24 02:05:35;;;;;;;5.50;3.35;;;;;;;11.44;84.06;93424.66;2026295;71;20228;-76
2023/09/24 02:08:08;;;;;;;4.97;3.53;;;;;;;11.43;83.57;93417.56;2027661;70;20676;-76
2023/09/24 02:10:41;;;;;;;6.93;3.70;;;;;;;11.53;81.57;93419.59;2028746;70;20628;-76
2023/09/24 02:13:08;;;;;;;9.57;4.53;;;;;;;11.47;83.69;93416.38;2031384;70;20145;-77
2023/09/24 02:15:34;;;;;;;4.70;3.88;;;;;;;11.51;83.10;93423.03;2029166;70;20676;-77
2023/09/24 02:18:00;;;;;;;5.72;3.83;;;;;;;11.57;82.60;93423.44;2029484;70;20180;-77
2023/09/24 02:20:32;;;;;;;8.10;3.83;;;;;;;11.62;83.03;93430.09;2031568;70;20164;-77
2023/09/24 02:23:02;;;;;;;6.25;3.83;;;;;;;11.65;82.66;93432.47;2029820;70;20145;-77
2023/09/24 02:25:29;;;;;;;8.38;3.78;;;;;;;11.74;81.01;93427.38;2029107;70;20148;-76
2023/09/24 02:27:56;;;;;;;7.90;3.65;;;;;;;11.82;81.41;93447.66;2028907;70;20231;-76
2023/09/24 02:30:27;;;;;;;4.68;3.58;;;;;;;11.81;82.11;93441.28;2026383;70;20183;-77
2023/09/24 02:32:57;;;;;;;5.13;3.25;;;;;;;11.77;82.15;93440.25;2028905;70;20141;-77
2023/09/24 02:35:25;;;;;;;4.55;3.20;;;;;;;11.83;81.85;93444.28;2029131;70;20257;-77
2023/09/24 02:37:53;;;;;;;5.40;2.92;;;;;;;11.89;81.73;93447.50;2029621;70;20229;-76
2023/09/24 02:40:26;;;;;;;7.63;2.70;;;;;;;11.84;81.41;93448.56;2028728;70;20179;-76
2023/09/24 02:42:57;;;;;;;6.00;2.55;;;;;;;11.74;81.55;93458.41;2029656;70;20187;-78
2023/09/24 02:45:29;;;;;;;4.22;2.22;;;;;;;11.75;81.49;93457.06;2029745;70;20152;-75
2023/09/24 02:47:55;;;;;;;3.35;2.10;;;;;;;11.81;81.64;93457.47;2031711;70;20189;-76
2023/09/24 02:50:24;;;;;;;4.78;1.88;;;;;;;11.76;81.64;93458.53;2029747;70;20161;-76
2023/09/24 02:52:53;;;;;;;6.55;2.20;;;;;;;11.84;81.32;93459.13;2029591;70;20139;-76
2023/09/24 02:55:19;;;;;;;5.53;3.42;;;;;;;11.74;81.73;93458.41;2028908;70;20604;-75
2023/09/24 02:57:46;;;;;;;5.00;2.20;;;;;;;11.91;81.21;93464.59;2029131;70;20521;-76
2023/09/24 03:00:18;;;;;;;6.13;3.58;;;;;;;11.30;83.41;93463.16;2029653;70;20164;-75
2023/09/24 03:02:44;;;;;;;4.65;3.47;;;;;;;11.39;84.43;93468.03;2031585;70;20535;-76
2023/09/24 03:05:19;;;;;;;4.90;3.72;;;;;;;11.31;84.13;93467.44;2029144;70;20176;-76
2023/09/24 03:07:46;;;;;;;6.32;3.05;;;;;;;11.59;83.42;93468.72;2029823;70;20253;-75
2023/09/24 03:10:13;;;;;;;8.63;3.75;;;;;;;11.68;81.62;93470.75;2029212;70;20156;-78
2023/09/24 03:12:40;;;;;;;6.53;3.58;;;;;;;11.60;82.89;93470.19;2029629;70;20216;-75
2023/09/24 03:15:06;;;;;;;4.63;3.13;;;;;;;11.50;83.50;93475.13;2031325;70;20691;-76
2023/09/24 03:17:33;;;;;;;3.63;2.85;;;;;;;10.98;86.16;93474.94;2029131;70;20604;-76
2023/09/24 03:20:00;;;;;;;4.15;2.88;;;;;;;11.36;84.80;93480.50;2028882;70;20149;-77
2023/09/24 03:22:26;;;;;;;4.30;2.85;;;;;;;11.51;84.09;93476.59;2029153;70;20168;-76
2023/09/24 03:24:51;;;;;;;6.95;2.72;;;;;;;11.59;82.97;93479.22;2029852;70;20588;-76
2023/09/24 03:27:17;;;;;;;3.13;2.45;;;;;;;11.59;82.26;93465.13;2029050;70;20198;-76
2023/09/24 03:29:43;;;;;;;4.68;2.63;;;;;;;11.67;82.08;93471.34;2028884;70;20183;-76
2023/09/24 03:32:09;;;;;;;4.72;2.60;;;;;;;11.75;81.74;93471.16;2028944;70;20596;-76
2023/09/24 03:34:35;;;;;;;4.65;2.67;;;;;;;11.46;83.66;93474.84;2029190;70;20182;-76
2023/09/24 03:37:00;;;;;;;4.90;2.53;;;;;;;11.27;83.73;93474.88;2026419;70;20180;-76
2023/09/24 03:39:26;;;;;;;3.35;2.28;;;;;;;11.13;85.58;93477.44;2031685;70;20600;-76
2023/09/24 03:41:52;;;;;;;4.30;2.45;;;;;;;11.45;81.98;93473.34;2028870;70;20160;-76
2023/09/24 03:44:18;;;;;;;4.10;2.80;;;;;;;10.91;85.85;93476.59;2029625;70;20137;-76
2023/09/24 03:46:43;;;;;;;4.97;2.40;;;;;;;10.97;86.45;93487.56;2028891;70;20167;-77
2023/09/24 03:49:11;;;;;;;4.35;2.20;;;;;;;11.28;84.11;93485.56;2029547;70;20264;-77
2023/09/24 03:51:36;;;;;;;3.65;2.30;;;;;;;11.15;85.46;93481.16;2028988;70;20164;-78
2023/09/24 03:54:03;;;;;;;3.90;2.10;;;;;;;11.19;84.76;93489.16;2028849;70;20148;-76
2023/09/24 03:56:29;;;;;;;3.58;2.13;;;;;;;10.92;86.76;93483.72;2029407;70;20136;-76
2023/09/24 03:58:56;;;;;;;6.85;2.50;;;;;;;10.69;87.69;93492.63;2029488;70;20144;-76
2023/09/24 04:01:23;;;;;;;2.45;2.10;;;;;;;11.04;85.91;93492.28;2031104;70;20160;-76
2023/09/24 04:03:49;;;;;;;5.60;2.30;;;;;;;10.93;86.03;93491.56;2028733;70;20539;-76
2023/09/24 04:06:16;;;;;;;2.58;2.00;;;;;;;11.04;86.10;93500.72;2028886;70;20141;-76
2023/09/24 04:08:42;;;;;;;4.05;2.53;;;;;;;10.88;86.05;93494.69;2030972;70;20164;-77
2023/09/24 04:11:10;;;;;;;5.07;2.28;;;;;;;10.80;85.79;93492.00;2029724;70;20140;-76
2023/09/24 04:13:36;;;;;;;2.55;1.88;;;;;;;11.11;84.10;93485.75;2029751;70;20217;-76
2023/09/24 04:16:12;;;;;;;4.53;2.22;;;;;;;11.25;84.00;93489.56;2029814;70;20156;-76
2023/09/24 04:18:41;;;;;;;5.85;2.50;;;;;;;11.35;83.22;93486.72;2029758;70;20547;-76
2023/09/24 04:21:19;;;;;;;5.38;2.05;;;;;;;11.31;82.88;93500.53;2029499;70;20276;-76
2023/09/24 04:23:46;;;;;;;3.75;2.20;;;;;;;11.33;83.11;93492.25;2029624;70;20141;-76
2023/09/24 04:26:22;;;;;;;5.15;2.10;;;;;;;11.48;82.91;93486.25;2028245;70;20274;-76
2023/09/24 04:28:51;;;;;;;3.50;2.10;;;;;;;11.50;82.37;93483.59;2029469;70;20161;-77
2023/09/24 04:31:17;;;;;;;3.50;1.90;;;;;;;11.54;81.04;93485.94;2029810;70;20160;-76
2023/09/24 04:33:44;;;;;;;3.05;2.10;;;;;;;11.24;83.56;93499.38;2029770;70;20516;-76
2023/09/24 04:36:10;;;;;;;3.70;2.22;;;;;;;11.28;83.03;93496.13;2029500;70;20236;-77
2023/09/24 04:38:37;;;;;;;2.63;2.33;;;;;;;11.27;83.07;93500.25;2029676;70;20172;-76
2023/09/24 04:41:03;;;;;;;4.50;2.30;;;;;;;11.01;84.55;93501.94;2029767;70;20607;-76
2023/09/24 04:43:29;;;;;;;2.78;2.40;;;;;;;10.67;86.99;93498.84;2028793;70;20156;-76
2023/09/24 04:45:55;;;;;;;4.07;2.70;;;;;;;11.18;84.25;93501.78;2028566;70;20236;-76
2023/09/24 04:48:21;;;;;;;3.97;2.35;;;;;;;11.29;83.45;93506.03;2028552;70;20152;-76
2023/09/24 04:50:48;;;;;;;5.13;2.40;;;;;;;11.45;82.91;93505.13;2029163;70;20612;-76
2023/09/24 04:53:15;;;;;;;4.15;2.38;;;;;;;11.54;82.16;93505.66;2028698;70;20145;-76
2023/09/24 04:55:40;;;;;;;2.85;2.25;;;;;;;11.53;82.02;93504.19;2029179;70;20141;-76
2023/09/24 04:58:06;;;;;;;6.18;2.33;;;;;;;11.51;82.05;93495.59;2029224;70;20180;-76
2023/09/24 05:00:32;;;;;;;7.97;2.80;;;;;;;11.45;81.17;93499.47;2029272;70;20481;-76
2023/09/24 05:03:01;;;;;;;6.13;2.40;;;;;;;11.50;81.67;93496.91;2028995;70;20527;-77
2023/09/24 05:05:26;;;;;;;4.03;2.40;;;;;;;11.60;81.82;93500.47;2029501;70;20707;-77
2023/09/24 05:07:53;;;;;;;4.90;2.03;;;;;;;11.66;81.76;93498.81;2029473;70;20145;-77
2023/09/24 05:10:19;;;;;;;3.05;2.17;;;;;;;11.62;80.90;93498.50;2029448;70;20740;-76
2023/09/24 05:12:44;;;;;;;4.13;2.20;;;;;;;11.64;81.04;93507.13;2029407;70;20617;-76
2023/09/24 05:15:10;;;;;;;2.35;2.10;;;;;;;11.69;80.47;93519.44;2029394;70;20165;-76
2023/09/24 05:17:36;;;;;;;3.47;2.80;;;;;;;11.70;80.17;93510.38;2029294;70;20544;-76
2023/09/24 05:20:03;;;;;;;3.15;2.78;;;;;;;11.63;80.51;93522.56;2029132;70;20627;-75
2023/09/24 05:22:28;;;;;;;3.05;2.42;;;;;;;11.55;81.51;93521.28;2029095;70;20201;-77
2023/09/24 05:24:55;;;;;;;3.70;2.35;;;;;;;11.37;82.54;93523.53;2029069;70;20169;-76
2023/09/24 05:27:20;;;;;;;3.25;2.55;;;;;;;11.41;82.41;93518.19;2029008;70;20137;-76
2023/09/24 05:29:49;;;;;;;3.45;2.42;;;;;;;11.58;81.43;93531.34;2029006;70;20542;-77
2023/09/24 05:32:14;;;;;;;4.00;2.80;;;;;;;11.28;82.69;93530.69;2028978;70;20160;-77
2023/09/24 05:34:40;;;;;;;5.70;2.40;;;;;;;11.50;81.58;93531.53;2028918;70;20607;-77
2023/09/24 05:37:06;;;;;;;7.88;2.90;;;;;;;11.36;83.05;93531.25;2029069;70;20225;-77
2023/09/24 05:39:33;;;;;;;4.50;2.75;;;;;;;11.48;82.70;93528.53;2029101;70;20144;-77
2023/09/24 05:41:59;;;;;;;4.80;2.33;;;;;;;11.45;82.31;93530.50;2028832;70;20145;-77
2023/09/24 05:44:25;;;;;;;4.47;2.53;;;;;;;11.46;83.23;93534.06;2028947;70;20532;-77
2023/09/24 05:46:50;;;;;;;4.57;2.50;;;;;;;11.56;82.33;93531.22;2029140;70;20150;-77
2023/09/24 05:49:16;;;;;;;6.20;2.80;;;;;;;11.29;83.58;93534.22;2029014;70;20494;-77
2023/09/24 05:51:42;;;;;;;3.47;2.60;;;;;;;11.40;83.48;93542.81;2028873;70;20233;-77
2023/09/24 05:54:10;;;;;;;3.03;2.42;;;;;;;11.02;85.23;93534.41;2029413;70;20137;-76
2023/09/24 05:56:41;;;;;;;3.50;2.70;;;;;;;11.50;81.92;93547.69;2029192;70;20589;-77
2023/09/24 05:59:06;;;;;;;3.03;2.42;;;;;;;11.52;82.18;93545.00;2029041;70;20263;-77
2023/09/24 06:01:32;;;;;;;3.25;2.33;;;;;;;11.59;82.06;93544.09;2028979;70;20159;-77
2023/09/24 06:03:57;;;;;;;4.78;2.35;;;;;;;11.67;81.77;93548.22;2029065;70;20165;-77
2023/09/24 06:06:23;;;;;;;3.55;2.60;;;;;;;11.43;82.85;93546.50;2028810;70;20550;-77
2023/09/24 06:08:49;;;;;;;3.60;2.65;;;;;;;11.69;81.79;93547.66;2029084;70;20232;-77
2023/09/24 06:11:14;;;;;;;4.90;2.80;;;;;;;11.08;83.43;93546.13;2028324;70;20144;-77
2023/09/24 06:13:40;;;;;;;2.95;2.53;;;;;;;11.22;83.91;93552.03;2028402;70;20524;-77
2023/09/24 06:16:06;;;;;;;4.07;2.85;;;;;;;11.55;82.44;93560.75;2029319;70;20172;-78
2023/09/24 06:18:32;;;;;;;6.00;2.80;;;;;;;11.52;81.77;93551.41;2028780;70;20141;-77
2023/09/24 06:20:59;;;;;;;4.38;2.70;;;;;;;11.70;80.98;93557.59;2029224;70;20565;-77
2023/09/24 06:23:26;;;;;;;4.68;2.72;;;;;;;11.64;81.17;93562.81;2029680;70;20156;-78
2023/09/24 06:25:56;;;;;;;3.90;2.80;;;;;;;11.91;80.82;93560.50;2029075;70;20172;-77
2023/09/24 06:28:23;;;;;;;3.42;2.67;;;;;;;11.96;80.88;93555.91;2028659;70;20210;-79
2023/09/24 06:31:01;;;;;;;4.80;2.80;;;;;;;12.11;80.05;93555.53;2026082;70;20125;-78
2023/09/24 06:33:27;;;;;;;3.90;2.58;;;;;;;12.02;80.45;93549.94;2026128;70;20165;-78
2023/09/24 06:35:56;;;;;;;5.97;2.95;;;;;;;12.27;79.92;93557.97;2026822;70;20185;-77
2023/09/24 06:38:23;;;;;;;5.95;2.33;;;;;;;12.46;77.71;93569.16;2029741;70;20594;-77
2023/09/24 06:41:00;;;;;;;4.22;2.40;;;;;;;12.26;77.49;93564.97;2028937;70;20149;-77
2023/09/24 06:43:26;;;;;;;3.85;2.08;;;;;;;12.21;77.58;93569.59;2028577;70;20168;-77
2023/09/24 06:45:55;;;;;;;3.40;2.15;;;;;;;12.22;78.06;93548.47;2029083;70;20186;-77
2023/09/24 06:48:22;;;;;;;4.40;2.40;;;;;;;12.14;77.79;93556.38;2029299;70;20157;-77
2023/09/24 06:50:48;;;;;;;4.30;2.70;;;;;;;11.89;79.90;93570.91;2029816;70;20185;-77
2023/09/24 06:53:14;;;;;;;3.00;2.40;;;;;;;12.21;78.87;93572.41;2030364;70;20157;-78
2023/09/24 06:55:40;;;;;;;2.72;2.30;;;;;;;12.41;77.89;93579.44;2030906;70;20261;-77
2023/09/24 06:58:06;;;;;;;3.00;2.60;;;;;;;11.69;79.82;93573.78;2029925;70;20176;-78
2023/09/24 07:00:32;;;;;;;7.80;2.70;;;;;;;11.87;79.54;93579.25;2028281;70;20164;-76
2023/09/24 07:02:57;;;;;;;4.20;2.60;;;;;;;11.97;79.20;93588.41;2029228;70;20157;-77
2023/09/24 07:05:24;;;;;;;3.40;2.50;;;;;;;11.83;79.90;93588.16;2025914;70;20148;-77
2023/09/24 07:07:51;;;;;;;4.60;2.63;;;;;;;12.21;78.68;93584.44;2029454;70;20140;-77
2023/09/24 07:10:18;;;;;;;3.13;2.25;;;;;;;12.64;77.39;93578.13;2029463;70;20564;-76
2023/09/24 07:12:43;;;;;;;3.42;2.42;;;;;;;12.68;76.70;93576.31;2028921;70;20168;-75
2023/09/24 07:15:09;;;;;;;3.25;2.47;;;;;;;12.65;76.19;93582.44;2029282;70;20221;-76
2023/09/24 07:17:35;;;;;;;6.05;3.03;;;;;;;12.23;78.04;93585.91;2028432;70;20196;-77
2023/09/24 07:20:04;;;;;;;4.70;2.85;;;;;;;12.24;77.85;93582.50;2029088;70;20149;-77
2023/09/24 07:22:30;;;;;;;3.50;2.95;;;;;;;12.12;79.01;93587.31;2029283;70;20785;-77
2023/09/24 07:24:56;;;;;;;6.78;3.47;;;;;;;12.21;79.06;93581.63;2028894;70;20152;-76
2023/09/24 07:27:24;;;;;;;5.22;3.05;;;;;;;11.90;79.23;93586.50;2029241;70;20287;-77
2023/09/24 07:29:50;;;;;;;6.43;3.20;;;;;;;12.11;79.70;93594.31;2029095;70;20152;-78
2023/09/24 07:32:16;;;;;;;3.65;2.97;;;;;;;12.30;79.11;93588.56;2029362;70;20136;-77
2023/09/24 07:34:46;;;;;;;6.50;3.03;;;;;;;12.44;77.80;93586.72;2028201;70;20149;-78
2023/09/24 07:37:12;;;;;;;4.55;2.50;;;;;;;12.38;76.82;93588.38;2026405;70;20203;-77
2023/09/24 07:39:38;;;;;;;4.88;2.80;;;;;;;12.72;75.26;93592.78;2026356;70;20536;-77
2023/09/24 07:42:03;;;;;;;4.20;3.20;;;;;;;12.66;77.53;93595.22;2027435;70;20164;-76
2023/09/24 07:44:29;;;;;;;3.60;2.97;;;;;;;12.87;75.92;93594.47;2028791;70;20304;-77
2023/09/24 07:46:54;;;;;;;3.30;2.70;;;;;;;12.69;76.83;93589.09;2028993;70;20152;-76
2023/09/24 07:49:20;;;;;;;3.58;2.58;;;;;;;12.95;75.41;93597.84;2029018;70;20156;-76
2023/09/24 07:51:47;;;;;;;3.85;2.80;;;;;;;12.59;76.10;93593.31;2028665;70;20270;-76
2023/09/24 07:54:13;;;;;;;2.63;2.30;;;;;;;13.20;74.92;93592.44;2028963;70;20644;-76
2023/09/24 07:56:41;;;;;;;2.75;2.05;;;;;;;13.22;74.40;93591.88;2028734;70;20196;-75
2023/09/24 07:59:07;;;;;;;2.97;2.38;;;;;;;13.33;74.43;93596.09;2027187;70;20192;-76
2023/09/24 08:01:35;;;;;;;3.45;2.88;;;;;;;13.13;74.85;93593.38;2027917;70;20165;-75
2023/09/24 08:04:01;;;;;;;3.40;2.55;;;;;;;13.48;73.47;93607.72;2027592;70;20676;-76
2023/09/24 08:06:28;;;;;;;3.50;2.58;;;;;;;13.06;73.99;93590.78;2028094;70;20171;-75
2023/09/24 08:08:58;;;;;;;4.65;2.60;;;;;;;13.25;73.10;93593.47;2028572;70;20172;-76
2023/09/24 08:11:24;;;;;;;3.40;2.70;;;;;;;12.80;74.73;93598.25;2028200;70;20224;-76
2023/09/24 08:13:50;;;;;;;4.00;2.72;;;;;;;13.29;73.76;93601.50;2028762;70;20693;-76
2023/09/24 08:16:16;;;;;;;4.22;3.10;;;;;;;13.40;73.12;93600.78;2028969;70;20284;-76
2023/09/24 08:18:44;;;;;;;5.25;2.83;;;;;;;13.74;72.60;93602.25;2028912;70;20152;-76
2023/09/24 08:21:11;;;;;;;3.80;2.63;;;;;;;13.79;71.27;93600.41;2028983;70;20646;-75
2023/09/24 08:23:36;;;;;;;4.25;2.70;;;;;;;13.39;72.28;93600.06;2028470;70;20536;-75
2023/09/24 08:26:02;;;;;;;3.88;2.30;;;;;;;13.33;72.39;93605.31;2029405;70;20156;-76
2023/09/24 08:28:29;;;;;;;2.70;2.40;;;;;;;13.53;72.47;93602.31;2029014;70;20580;-75
2023/09/24 08:30:55;;;;;;;4.13;2.92;;;;;;;13.76;71.46;93598.81;2028967;70;20318;-75
2023/09/24 08:33:21;;;;;;;3.53;2.78;;;;;;;14.16;70.80;93600.63;2029084;70;20140;-76
2023/09/24 08:35:47;;;;;;;3.53;3.00;;;;;;;14.31;71.08;93602.25;2029009;70;20167;-76
2023/09/24 08:38:14;;;;;;;4.22;2.67;;;;;;;14.39;70.53;93603.47;2028933;70;20141;-77
2023/09/24 08:40:40;;;;;;;3.28;2.75;;;;;;;14.46;69.14;93608.16;2028591;70;20156;-76
2023/09/24 08:43:10;;;;;;;5.10;3.25;;;;;;;14.43;68.66;93605.78;2029063;70;20260;-75
2023/09/24 08:45:35;;;;;;;5.00;3.35;;;;;;;14.22;68.46;93601.72;2028922;70;20213;-75
2023/09/24 08:48:07;;;;;;;3.55;2.60;;;;;;;14.47;68.62;93601.13;2028923;70;20145;-75
2023/09/24 08:50:38;;;;;;;3.20;2.70;;;;;;;14.53;68.66;93605.72;2029075;70;20217;-76
2023/09/24 08:53:10;;;;;;;3.97;2.90;;;;;;;14.62;67.70;93607.69;2028598;70;20232;-75
2023/09/24 08:55:47;;;;;;;4.97;3.20;;;;;;;14.20;68.52;93609.34;2028402;70;20147;-75
2023/09/24 08:58:13;;;;;;;5.20;3.85;;;;;;;14.48;68.08;93599.06;2028995;70;20097;-75
2023/09/24 09:00:42;;;;;;;4.35;3.03;;;;;;;14.48;69.46;93604.75;2028708;70;20225;-75
2023/09/24 09:03:08;;;;;;;5.38;3.80;;;;;;;14.44;69.52;93610.13;2028590;70;20199;-76
2023/09/24 09:05:37;;;;;;;6.82;3.35;;;;;;;14.69;68.89;93606.69;2028786;70;20197;-75
2023/09/24 09:08:04;;;;;;;5.75;3.38;;;;;;;14.49;67.81;93601.28;2027888;70;20243;-75
2023/09/24 09:10:34;;;;;;;4.38;3.20;;;;;;;14.81;67.48;93592.50;2028926;70;20341;-76
2023/09/24 09:13:08;;;;;;;4.22;3.10;;;;;;;14.19;69.58;93593.72;2029137;70;20604;-75
2023/09/24 09:15:36;;;;;;;5.57;3.03;;;;;;;14.82;68.28;93603.22;2028366;70;20672;-74
2023/09/24 09:18:02;;;;;;;4.53;3.20;;;;;;;14.95;68.01;93590.50;2028999;70;20161;-74
2023/09/24 09:20:43;;;;;;;4.13;3.15;;;;;;;14.58;68.64;93596.84;2029311;70;20175;-76
2023/09/24 09:23:27;;;;;;;5.00;3.03;;;;;;;14.75;68.91;93598.53;2029372;70;20156;-75
2023/09/24 09:25:53;;;;;;;4.53;3.00;;;;;;;14.66;68.35;93597.34;2028998;70;20256;-74
2023/09/24 09:28:20;;;;;;;4.28;2.60;;;;;;;14.80;68.35;93597.44;2028655;70;20160;-76
2023/09/24 09:31:06;;;;;;;5.50;2.60;;;;;;;15.38;67.21;93605.06;2028318;70;20129;-77
2023/09/24 09:33:41;;;;;;;2.95;2.50;;;;;;;15.56;65.93;93596.13;2028957;70;20151;-76
2023/09/24 09:36:23;;;;;;;4.18;2.72;;;;;;;15.81;64.91;93603.94;2028970;70;20160;-77
2023/09/24 09:38:54;;;;;;;4.25;2.70;;;;;;;15.78;65.15;93608.03;2029121;70;20145;-76
2023/09/24 09:41:21;;;;;;;10.38;4.78;;;;;;;15.72;64.86;93605.59;2028657;70;20141;-77
2023/09/24 09:43:48;;;;;;;5.72;3.25;;;;;;;15.77;65.76;93600.88;2029162;70;20193;-76
2023/09/24 09:46:18;;;;;;;5.25;2.70;;;;;;;16.20;64.58;93609.63;2029072;70;20255;-75
2023/09/24 09:48:55;;;;;;;5.40;2.55;;;;;;;15.50;63.63;93594.41;2028701;70;20157;-76
2023/09/24 09:51:25;;;;;;;3.67;2.53;;;;;;;16.29;61.39;93605.84;2029104;70;20147;-77
2023/09/24 09:53:56;;;;;;;3.60;2.53;;;;;;;15.25;64.11;93597.19;2029379;70;20156;-76
2023/09/24 09:56:23;;;;;;;2.55;2.15;;;;;;;15.52;64.17;93599.44;2029663;70;20141;-76
2023/09/24 09:58:51;;;;;;;4.38;2.25;;;;;;;16.43;63.60;93600.94;2029387;70;20156;-76
2023/09/24 10:01:20;;;;;;;2.78;2.20;;;;;;;16.17;62.74;93602.34;2029358;70;20192;-76
2023/09/24 10:03:50;;;;;;;3.67;2.67;;;;;;;15.89;63.71;93607.22;2029212;70;20204;-76
2023/09/24 10:06:18;;;;;;;3.05;2.40;;;;;;;16.37;62.13;93597.78;2028456;70;20188;-75
2023/09/24 10:08:49;;;;;;;3.65;2.40;;;;;;;16.96;60.95;93591.63;2029362;70;20160;-75
2023/09/24 10:11:30;;;;;;;3.25;2.10;;;;;;;16.66;61.00;93588.63;2029241;70;20152;-75
2023/09/24 10:13:57;;;;;;;3.25;2.40;;;;;;;16.40;61.38;93588.00;2028941;70;20268;-75
2023/09/24 10:16:27;;;;;;;2.33;2.00;;;;;;;17.10;58.32;93586.66;2028748;70;20158;-76
2023/09/24 10:19:11;;;;;;;3.42;2.03;;;;;;;17.85;58.13;93581.09;2029266;70;20173;-77
2023/09/24 10:21:42;;;;;;;3.35;2.08;;;;;;;18.75;57.67;93583.13;2029565;70;20152;-76
2023/09/24 10:24:14;;;;;;;3.95;2.28;;;;;;;19.01;55.14;93586.44;2029440;70;20600;-77
2023/09/24 10:27:05;;;;;;;3.30;2.00;;;;;;;19.30;53.27;93584.78;2031365;70;20159;-76
2023/09/24 10:29:53;;;;;;;2.47;1.70;;;;;;;21.78;50.34;93578.44;2032792;70;20151;-75
2023/09/24 10:32:21;;;;;;;3.75;1.92;;;;;;;21.30;49.24;93578.97;2033233;70;20132;-78
2023/09/24 10:35:09;;;;;;;2.83;1.85;;;;;;;21.68;48.40;93583.84;2032888;70;20192;-77
2023/09/24 10:37:56;;;;;;;3.10;1.88;;;;;;;21.87;47.92;93582.31;2033349;70;20151;-76
2023/09/24 10:40:26;;;;;;;6.28;1.98;;;;;;;23.00;46.40;93578.59;2033232;70;20672;-78
2023/09/24 10:43:10;;;;;;;2.20;1.58;;;;;;;24.09;41.75;93577.19;2032444;70;20232;-77
2023/09/24 10:45:36;;;;;;;2.70;1.60;;;;;;;21.88;45.75;93572.28;2033125;70;20136;-78
2023/09/24 10:48:02;;;;;;;3.78;1.67;;;;;;;23.79;44.06;93571.41;2033054;70;20152;-77
2023/09/24 10:50:28;;;;;;;2.55;1.48;;;;;;;21.42;46.69;93572.19;2032642;70;20231;-76
2023/09/24 10:52:58;;;;;;;2.88;1.40;;;;;;;24.13;43.69;93568.66;2032440;70;20232;-76
2023/09/24 10:55:30;;;;;;;2.38;1.60;;;;;;;22.79;45.52;93569.41;2032792;70;20204;-76
2023/09/24 10:58:03;;;;;;;4.63;1.55;;;;;;;22.97;43.52;93568.50;2032838;70;20675;-76
2023/09/24 11:00:31;;;;;;;2.40;1.80;;;;;;;21.67;45.01;93580.22;2032890;70;20248;-76
2023/09/24 11:03:05;;;;;;;2.72;1.40;;;;;;;21.76;46.47;93576.25;2030815;70;20160;-76
2023/09/24 11:05:49;;;;;;;3.60;1.42;;;;;;;21.47;44.95;93574.53;2031829;70;20156;-76
2023/09/24 11:08:17;;;;;;;2.95;1.33;;;;;;;21.60;45.14;93561.38;2032483;70;20612;-76
2023/09/24 11:10:49;;;;;;;2.30;1.30;;;;;;;21.22;45.35;93560.75;2032803;70;20224;-76
2023/09/24 11:13:15;;;;;;;4.53;1.73;;;;;;;21.52;44.94;93561.81;2032624;70;20151;-77
2023/09/24 11:15:42;;;;;;;2.53;1.45;;;;;;;21.15;45.59;93571.25;2032815;70;20188;-76
2023/09/24 11:18:10;;;;;;;2.83;1.30;;;;;;;19.59;46.92;93557.41;2032715;70;20184;-79
2023/09/24 11:20:36;;;;;;;2.15;1.40;;;;;;;19.67;47.08;93557.78;2032960;70;20152;-76
2023/09/24 11:23:05;;;;;;;2.55;1.27;;;;;;;21.13;45.60;93551.16;2032948;70;20167;-76
2023/09/24 11:25:31;;;;;;;1.85;1.30;;;;;;;21.89;44.54;93556.56;2032292;70;20153;-74
2023/09/24 11:27:58;;;;;;;5.30;1.50;;;;;;;20.73;44.31;93556.88;2032510;70;20516;-76
2023/09/24 11:30:29;;;;;;;3.10;1.30;;;;;;;23.40;42.61;93553.13;2032829;70;20156;-77
2023/09/24 11:32:54;;;;;;;1.90;1.50;;;;;;;26.44;37.95;93565.31;2032735;70;20249;-76
2023/09/24 11:35:22;;;;;;;1.60;1.20;;;;;;;28.83;35.64;93565.72;2032779;70;20720;-75
2023/09/24 11:37:50;;;;;;;1.92;1.30;;;;;;;31.75;31.94;93563.00;2032866;70;20596;-76
2023/09/24 11:40:23;;;;;;;3.38;1.40;;;;;;;31.12;29.29;93561.03;2032644;70;20191;-76